createdAt,value
2018-02-07T00:00:29.617Z,-6.40
2018-02-07T00:02:57.232Z,-6.50
2018-02-07T00:05:27.964Z,-6.40
2018-02-07T00:07:54.361Z,-6.60
2018-02-07T00:10:21.108Z,-6.70
2018-02-07T00:12:48.216Z,-6.90
2018-02-07T00:15:14.916Z,-6.90
2018-02-07T00:17:41.400Z,-7.20
2018-02-07T00:20:08.780Z,-7.30
2018-02-07T00:22:35.136Z,-7.20
2018-02-07T00:25:02.318Z,-7.30
2018-02-07T00:27:28.699Z,-7.40
2018-02-07T00:29:55.134Z,-7.50
2018-02-07T00:32:21.464Z,-7.30
2018-02-07T00:34:47.893Z,-7.20
2018-02-07T00:37:14.846Z,-7.10
2018-02-07T00:39:41.324Z,-7.00
2018-02-07T00:42:07.724Z,-7.10
2018-02-07T00:44:34.187Z,-7.00
2018-02-07T00:47:00.560Z,-7.20
2018-02-07T00:49:27.673Z,-7.10
2018-02-07T00:51:54.082Z,-7.00
2018-02-07T00:54:20.812Z,-7.00
2018-02-07T00:56:47.216Z,-7.00
2018-02-07T00:59:13.642Z,-7.00
2018-02-07T01:01:39.995Z,-6.90
2018-02-07T01:04:06.413Z,-6.70
2018-02-07T01:06:32.760Z,-6.70
2018-02-07T01:09:00.406Z,-6.80
2018-02-07T01:11:27.408Z,-6.80
2018-02-07T01:13:53.916Z,-7.20
2018-02-07T01:16:21.082Z,-7.20
2018-02-07T01:18:47.467Z,-7.40
2018-02-07T01:21:16.124Z,-7.50
2018-02-07T01:23:42.515Z,-7.60
2018-02-07T01:26:10.015Z,-7.60
2018-02-07T01:28:37.120Z,-7.60
2018-02-07T01:31:03.628Z,-7.60
2018-02-07T01:33:29.980Z,-7.70
2018-02-07T01:35:56.378Z,-7.80
2018-02-07T01:38:25.689Z,-7.80
2018-02-07T01:40:52.504Z,-7.70
2018-02-07T01:43:19.419Z,-7.60
2018-02-07T01:45:45.921Z,-7.60
2018-02-07T01:48:12.444Z,-7.60
2018-02-07T01:50:39.664Z,-7.60
2018-02-07T01:53:06.131Z,-7.60
2018-02-07T01:55:32.934Z,-7.60
2018-02-07T01:57:59.349Z,-7.60
2018-02-07T02:00:25.740Z,-7.80
2018-02-07T02:02:52.119Z,-7.80
2018-02-07T02:05:18.668Z,-7.70
2018-02-07T02:07:45.433Z,-8.00
2018-02-07T02:10:11.866Z,-7.80
2018-02-07T02:12:38.972Z,-7.90
2018-02-07T02:15:06.105Z,-7.90
2018-02-07T02:17:32.785Z,-7.90
2018-02-07T02:20:09.128Z,-7.90
2018-02-07T02:22:36.414Z,-7.90
2018-02-07T02:25:03.179Z,-8.00
2018-02-07T02:27:30.097Z,-7.80
2018-02-07T02:29:56.477Z,-8.00
2018-02-07T02:32:22.829Z,-8.00
2018-02-07T02:34:49.210Z,-8.00
2018-02-07T02:37:16.292Z,-8.00
2018-02-07T02:39:42.654Z,-8.10
2018-02-07T02:42:09.382Z,-8.30
2018-02-07T02:44:35.767Z,-8.10
2018-02-07T02:47:02.183Z,-7.80
2018-02-07T02:49:29.109Z,-7.90
2018-02-07T02:51:55.830Z,-7.20
2018-02-07T02:54:23.493Z,-8.00
2018-02-07T02:56:49.926Z,-8.00
2018-02-07T02:59:16.274Z,-8.00
2018-02-07T03:01:43.426Z,-8.10
2018-02-07T03:04:10.741Z,-8.10
2018-02-07T03:06:37.135Z,-8.10
2018-02-07T03:09:03.687Z,-8.10
2018-02-07T03:11:30.877Z,-8.20
2018-02-07T03:13:57.300Z,-8.30
2018-02-07T03:16:23.682Z,-8.30
2018-02-07T03:18:50.206Z,-8.30
2018-02-07T03:21:16.987Z,-8.20
2018-02-07T03:23:44.564Z,-8.40
2018-02-07T03:26:10.976Z,-8.30
2018-02-07T03:28:37.693Z,-8.30
2018-02-07T03:31:05.209Z,-8.20
2018-02-07T03:33:31.615Z,-8.20
2018-02-07T03:35:57.982Z,-8.30
2018-02-07T03:38:31.330Z,-8.20
2018-02-07T03:40:57.791Z,-8.20
2018-02-07T03:43:24.202Z,-8.20
2018-02-07T03:45:51.374Z,-8.30
2018-02-07T03:48:18.109Z,-7.70
2018-02-07T03:50:44.836Z,-8.20
2018-02-07T03:53:11.231Z,-8.20
2018-02-07T03:55:37.652Z,-8.10
2018-02-07T03:58:04.792Z,-8.10
2018-02-07T04:00:31.120Z,-8.00
2018-02-07T04:02:57.541Z,-8.00
2018-02-07T04:05:24.355Z,-7.60
2018-02-07T04:07:50.732Z,-8.20
2018-02-07T04:10:17.890Z,-8.20
2018-02-07T04:12:45.021Z,-7.90
2018-02-07T04:15:11.475Z,-8.30
2018-02-07T04:17:38.234Z,-8.30
2018-02-07T04:20:04.731Z,-8.20
2018-02-07T04:22:31.089Z,-8.10
2018-02-07T04:27:31.029Z,-8.30
2018-02-07T04:29:58.315Z,-8.60
2018-02-07T04:32:25.120Z,-8.20
2018-02-07T04:34:51.510Z,-8.30
2018-02-07T04:37:18.608Z,-8.20
2018-02-07T04:39:44.924Z,-8.20
2018-02-07T04:42:11.822Z,-8.30
2018-02-07T04:47:07.452Z,-8.10
2018-02-07T04:49:34.618Z,-8.10
2018-02-07T04:52:03.334Z,-8.10
2018-02-07T04:54:30.329Z,-8.20
2018-02-07T04:56:58.555Z,-8.40
2018-02-07T04:59:25.484Z,-8.20
2018-02-07T05:01:52.398Z,-8.40
2018-02-07T05:06:48.106Z,-8.20
2018-02-07T05:09:15.039Z,-8.20
2018-02-07T05:11:42.094Z,-8.30
2018-02-07T05:14:09.469Z,-8.20
2018-02-07T05:16:36.392Z,-8.20
2018-02-07T05:19:04.125Z,-8.40
2018-02-07T05:21:31.813Z,-8.40
2018-02-07T05:23:58.589Z,-8.70
2018-02-07T05:26:25.897Z,-8.60
2018-02-07T05:28:52.309Z,-8.50
2018-02-07T05:31:19.162Z,-10.00
2018-02-07T05:33:45.702Z,-8.00
2018-02-07T05:36:12.137Z,-8.40
2018-02-07T05:38:38.682Z,-8.50
2018-02-07T05:41:05.304Z,-8.60
2018-02-07T05:43:31.830Z,-8.30
2018-02-07T05:45:59.083Z,-8.40
2018-02-07T05:48:25.578Z,-8.50
2018-02-07T05:50:52.703Z,-8.40
2018-02-07T05:53:19.629Z,-8.10
2018-02-07T05:55:46.083Z,-8.60
2018-02-07T05:58:13.246Z,-8.30
2018-02-07T06:00:39.627Z,-8.20
2018-02-07T06:03:07.184Z,-8.20
2018-02-07T06:05:33.959Z,-8.70
2018-02-07T06:08:00.750Z,-7.90
2018-02-07T06:10:27.537Z,-8.00
2018-02-07T06:12:53.963Z,-7.90
2018-02-07T06:15:21.194Z,-8.50
2018-02-07T06:17:47.609Z,-8.10
2018-02-07T06:20:13.963Z,-8.10
2018-02-07T06:22:41.142Z,-8.10
2018-02-07T06:25:07.577Z,-8.00
2018-02-07T06:27:34.711Z,-8.00
2018-02-07T06:30:01.973Z,-7.90
2018-02-07T06:32:33.062Z,-8.00
2018-02-07T06:35:00.601Z,-8.00
2018-02-07T06:37:28.504Z,-8.10
2018-02-07T06:39:55.045Z,-7.80
2018-02-07T06:42:22.177Z,-8.10
2018-02-07T06:44:49.151Z,-8.10
2018-02-07T06:47:15.692Z,-8.30
2018-02-07T06:49:42.930Z,-8.20
2018-02-07T06:52:09.355Z,-8.20
2018-02-07T06:57:04.000Z,-8.10
2018-02-07T06:59:30.535Z,-7.60
2018-02-07T07:01:58.325Z,-8.10
2018-02-07T07:04:24.765Z,-7.90
2018-02-07T07:06:51.216Z,-7.90
2018-02-07T07:11:46.636Z,-7.90
2018-02-07T07:14:13.724Z,-7.90
2018-02-07T07:16:40.177Z,-7.80
2018-02-07T07:19:06.662Z,-7.70
2018-02-07T07:21:33.426Z,-7.80
2018-02-07T07:24:01.994Z,-7.80
2018-02-07T07:26:29.207Z,-7.80
2018-02-07T07:28:55.743Z,-7.80
2018-02-07T07:31:22.997Z,-7.70
2018-02-07T07:33:50.595Z,-7.70
2018-02-07T07:36:18.610Z,-7.60
2018-02-07T07:38:45.459Z,-7.50
2018-02-07T07:41:12.637Z,-7.50
2018-02-07T07:46:07.578Z,-7.50
2018-02-07T07:48:35.091Z,-7.30
2018-02-07T07:51:01.499Z,-7.30
2018-02-07T07:53:27.956Z,-7.20
2018-02-07T07:55:54.356Z,-7.00
2018-02-07T07:58:21.157Z,-6.90
2018-02-07T08:00:48.113Z,-6.80
2018-02-07T08:03:14.458Z,-6.70
2018-02-07T08:08:09.121Z,-6.50
2018-02-07T08:10:35.475Z,-6.60
2018-02-07T08:13:02.311Z,-6.60
2018-02-07T08:15:29.235Z,-6.60
2018-02-07T08:17:56.339Z,-6.60
2018-02-07T08:20:22.866Z,-6.50
2018-02-07T08:22:50.028Z,-6.40
2018-02-07T08:25:16.837Z,-6.20
2018-02-07T08:27:43.944Z,-6.00
2018-02-07T08:30:10.426Z,-5.70
2018-02-07T08:32:36.835Z,-5.80
2018-02-07T08:35:03.650Z,-5.90
2018-02-07T08:37:30.823Z,-5.80
2018-02-07T08:39:57.886Z,-5.70
2018-02-07T08:42:25.364Z,-5.50
2018-02-07T08:44:51.820Z,-5.50
2018-02-07T08:47:18.283Z,-5.70
2018-02-07T08:49:45.463Z,-5.30
2018-02-07T08:52:13.109Z,-5.30
2018-02-07T08:54:39.913Z,-5.60
2018-02-07T08:57:06.219Z,-5.10
2018-02-07T08:59:32.608Z,-5.00
2018-02-07T09:01:59.355Z,-5.50
2018-02-07T09:04:25.763Z,-5.10
2018-02-07T09:06:52.200Z,-5.00
2018-02-07T09:09:18.653Z,-5.00
2018-02-07T09:11:46.308Z,-4.80
2018-02-07T09:14:12.788Z,-4.80
2018-02-07T09:16:39.616Z,-4.70
2018-02-07T09:19:06.755Z,-4.70
2018-02-07T09:21:34.691Z,-4.60
2018-02-07T09:24:01.179Z,-4.50
2018-02-07T09:26:28.483Z,-4.50
2018-02-07T09:31:24.504Z,-4.20
2018-02-07T09:33:51.704Z,-4.20
2018-02-07T09:36:18.593Z,-4.10
2018-02-07T09:38:45.027Z,-4.00
2018-02-07T09:41:11.622Z,-3.90
2018-02-07T09:43:38.032Z,-3.90
2018-02-07T09:46:04.570Z,-3.80
2018-02-07T09:48:31.068Z,-3.70
2018-02-07T09:50:57.715Z,-3.60
2018-02-07T09:53:24.106Z,-3.50
2018-02-07T09:55:50.576Z,-3.10
2018-02-07T09:58:17.949Z,-3.40
2018-02-07T10:00:44.642Z,-3.30
2018-02-07T10:03:11.801Z,-3.10
2018-02-07T10:05:40.036Z,-3.10
2018-02-07T10:10:34.467Z,-2.90
2018-02-07T10:13:00.875Z,-2.90
2018-02-07T10:15:27.267Z,-2.80
2018-02-07T10:17:54.048Z,-2.50
2018-02-07T10:20:22.103Z,-2.80
2018-02-07T10:22:49.603Z,-2.70
2018-02-07T10:25:16.375Z,-3.20
2018-02-07T10:27:42.827Z,-2.20
2018-02-07T10:30:09.237Z,-2.60
2018-02-07T10:32:36.159Z,-2.70
2018-02-07T10:35:03.101Z,-2.30
2018-02-07T10:37:29.466Z,-2.50
2018-02-07T10:39:57.394Z,-2.20
2018-02-07T10:42:23.722Z,-2.30
2018-02-07T10:44:50.084Z,-2.30
2018-02-07T10:47:17.798Z,-2.40
2018-02-07T10:49:44.361Z,-2.40
2018-02-07T10:52:10.708Z,-2.30
2018-02-07T10:54:38.172Z,-2.40
2018-02-07T10:57:04.704Z,-2.20
2018-02-07T10:59:31.139Z,-2.10
2018-02-07T11:01:58.488Z,-2.00
2018-02-07T11:04:24.884Z,-2.00
2018-02-07T11:06:51.640Z,-1.80
2018-02-07T11:09:18.042Z,-1.80
2018-02-07T11:11:44.894Z,-1.70
2018-02-07T11:14:11.427Z,-1.70
2018-02-07T11:16:39.319Z,-1.70
2018-02-07T11:19:05.822Z,-1.60
2018-02-07T11:21:33.321Z,-1.60
2018-02-07T11:24:00.466Z,-1.70
2018-02-07T11:26:26.900Z,-1.60
2018-02-07T11:28:54.347Z,-1.50
2018-02-07T11:31:21.835Z,-1.60
2018-02-07T11:33:48.406Z,-1.70
2018-02-07T11:36:15.301Z,-1.50
2018-02-07T11:38:41.825Z,-2.80
2018-02-07T11:41:08.525Z,-1.10
2018-02-07T11:43:35.278Z,-1.20
2018-02-07T11:46:03.255Z,-0.70
2018-02-07T11:48:30.373Z,-0.50
2018-02-07T11:50:57.553Z,-0.20
2018-02-07T11:53:24.753Z,0.30
2018-02-07T11:55:51.246Z,1.10
2018-02-07T11:58:17.772Z,2.50
2018-02-07T12:00:44.222Z,3.80
2018-02-07T12:03:11.350Z,5.40
2018-02-07T12:05:37.730Z,7.10
2018-02-07T12:08:04.923Z,8.30
2018-02-07T12:10:31.720Z,9.50
2018-02-07T12:12:59.147Z,10.70
2018-02-07T12:15:25.924Z,11.60
2018-02-07T12:17:52.421Z,12.20
2018-02-07T12:20:18.829Z,12.30
2018-02-07T12:22:45.589Z,12.60
2018-02-07T12:25:12.380Z,12.70
2018-02-07T12:27:39.892Z,12.40
2018-02-07T12:30:06.343Z,12.50
2018-02-07T12:32:33.476Z,12.40
2018-02-07T12:34:59.831Z,12.20
2018-02-07T12:37:26.634Z,12.40
2018-02-07T12:39:54.583Z,12.50
2018-02-07T12:42:21.967Z,12.50
2018-02-07T12:44:48.398Z,13.10
2018-02-07T12:47:14.813Z,12.90
2018-02-07T12:49:41.136Z,13.20
2018-02-07T12:52:07.499Z,12.80
2018-02-07T12:54:33.942Z,13.00
2018-02-07T12:57:00.441Z,13.60
2018-02-07T12:59:27.586Z,13.60
2018-02-07T13:01:54.883Z,13.50
2018-02-07T13:04:22.318Z,13.00
2018-02-07T13:06:48.710Z,13.00
2018-02-07T13:09:16.598Z,12.90
2018-02-07T13:11:43.054Z,12.30
2018-02-07T13:14:09.363Z,12.30
2018-02-07T13:16:36.554Z,12.00
2018-02-07T13:19:02.947Z,12.20
2018-02-07T13:21:29.482Z,12.30
2018-02-07T13:23:55.998Z,12.60
2018-02-07T13:26:22.340Z,12.10
2018-02-07T13:28:49.417Z,12.00
2018-02-07T13:31:16.854Z,11.50
2018-02-07T13:33:43.312Z,11.60
2018-02-07T13:36:10.408Z,11.80
2018-02-07T13:38:36.773Z,11.80
2018-02-07T13:41:03.916Z,11.70
2018-02-07T13:43:31.175Z,11.50
2018-02-07T13:45:57.539Z,11.50
2018-02-07T13:48:24.683Z,10.70
2018-02-07T13:50:51.076Z,10.50
2018-02-07T13:53:17.512Z,10.60
2018-02-07T13:55:44.579Z,10.80
2018-02-07T13:58:12.187Z,10.80
2018-02-07T14:00:44.628Z,10.80
2018-02-07T14:03:10.942Z,11.20
2018-02-07T14:05:37.333Z,11.30
2018-02-07T14:08:04.037Z,11.00
2018-02-07T14:10:30.569Z,8.80
2018-02-07T14:12:57.313Z,10.70
2018-02-07T14:15:23.799Z,10.70
2018-02-07T14:17:50.435Z,9.70
2018-02-07T14:22:46.083Z,9.50
2018-02-07T14:25:13.644Z,9.10
2018-02-07T14:27:40.815Z,8.90
2018-02-07T14:30:07.356Z,8.60
2018-02-07T14:32:34.461Z,8.30
2018-02-07T14:35:00.951Z,7.90
2018-02-07T14:37:27.717Z,8.40
2018-02-07T14:39:54.590Z,7.80
2018-02-07T14:42:21.773Z,7.60
2018-02-07T14:44:48.218Z,7.20
2018-02-07T14:47:15.549Z,7.20
2018-02-07T14:49:42.299Z,7.20
2018-02-07T14:52:09.440Z,7.10
2018-02-07T14:54:36.438Z,7.10
2018-02-07T14:57:03.691Z,6.70
2018-02-07T14:59:30.061Z,6.30
2018-02-07T15:01:58.268Z,6.00
2018-02-07T15:04:25.692Z,5.60
2018-02-07T15:06:52.934Z,5.30
2018-02-07T15:09:20.551Z,5.20
2018-02-07T15:11:47.076Z,5.20
2018-02-07T15:14:13.898Z,5.00
2018-02-07T15:16:40.324Z,5.00
2018-02-07T15:19:07.157Z,4.80
2018-02-07T15:21:34.761Z,4.00
2018-02-07T15:24:02.450Z,2.60
2018-02-07T15:26:29.268Z,1.60
2018-02-07T15:28:57.102Z,0.80
2018-02-07T15:31:24.613Z,0.40
2018-02-07T15:33:51.887Z,0.00
2018-02-07T15:36:18.543Z,-0.10
2018-02-07T15:38:45.944Z,0.00
2018-02-07T15:41:13.275Z,-0.10
2018-02-07T15:43:40.357Z,-0.20
2018-02-07T15:46:06.841Z,-0.20
2018-02-07T15:48:34.026Z,-0.70
2018-02-07T15:51:00.525Z,-0.90
2018-02-07T15:53:27.354Z,-1.00
2018-02-07T15:55:53.804Z,-1.20
2018-02-07T15:58:20.596Z,-1.40
2018-02-07T16:00:47.315Z,-1.40
2018-02-07T16:03:14.591Z,-1.50
2018-02-07T16:05:41.729Z,-1.70
2018-02-07T16:08:08.099Z,-1.70
2018-02-07T16:10:34.537Z,-0.90
2018-02-07T16:13:01.001Z,-1.70
2018-02-07T16:15:27.781Z,-1.80
2018-02-07T16:17:54.903Z,-1.90
2018-02-07T16:20:22.354Z,-2.10
2018-02-07T16:22:49.074Z,-2.10
2018-02-07T16:25:16.640Z,-2.20
2018-02-07T16:27:43.780Z,-2.20
2018-02-07T16:30:10.504Z,-2.30
2018-02-07T16:32:38.364Z,-2.40
2018-02-07T16:35:05.579Z,-2.40
2018-02-07T16:37:32.085Z,-2.40
2018-02-07T16:39:58.581Z,-2.50
2018-02-07T16:42:32.284Z,-2.40
2018-02-07T16:44:58.752Z,-2.60
2018-02-07T16:47:25.981Z,-2.60
2018-02-07T16:49:52.467Z,-2.70
2018-02-07T16:52:19.245Z,-2.80
2018-02-07T16:54:45.633Z,-2.80
2018-02-07T16:57:12.324Z,-2.70
2018-02-07T16:59:39.138Z,-3.00
2018-02-07T17:02:05.716Z,-3.00
2018-02-07T17:07:00.861Z,-3.20
2018-02-07T17:09:28.254Z,-3.20
2018-02-07T17:14:23.822Z,-3.20
2018-02-07T17:19:18.751Z,-3.50
2018-02-07T17:21:45.153Z,-3.40
2018-02-07T17:24:12.423Z,-3.30
2018-02-07T17:26:38.844Z,-3.10
2018-02-07T17:29:06.005Z,-3.60
2018-02-07T17:31:32.405Z,-3.40
2018-02-07T17:33:59.648Z,-2.70
2018-02-07T17:36:26.580Z,-3.70
2018-02-07T17:38:53.440Z,-3.80
2018-02-07T17:41:20.830Z,-3.90
2018-02-07T17:43:47.327Z,-4.10
2018-02-07T17:46:14.767Z,-4.20
2018-02-07T17:48:41.457Z,-4.20
2018-02-07T17:51:08.399Z,-4.20
2018-02-07T17:58:33.382Z,-4.50
2018-02-07T18:00:59.812Z,-4.60
2018-02-07T18:03:26.361Z,-4.90
2018-02-07T18:05:53.034Z,-4.40
2018-02-07T18:08:19.847Z,-4.70
2018-02-07T18:10:47.123Z,-4.70
2018-02-07T18:13:15.451Z,-4.70
2018-02-07T18:15:42.251Z,-4.80
2018-02-07T18:23:05.241Z,-4.90
2018-02-07T18:25:32.309Z,-4.90
2018-02-07T18:27:58.821Z,-5.10
2018-02-07T18:30:25.375Z,-5.10
2018-02-07T18:32:52.884Z,-5.10
2018-02-07T18:35:20.445Z,-5.20
2018-02-07T18:37:47.940Z,-5.20
2018-02-07T18:40:14.413Z,-5.10
2018-02-07T18:42:42.375Z,-5.30
2018-02-07T18:45:08.822Z,-5.10
2018-02-07T18:47:36.151Z,-5.20
2018-02-07T18:50:02.912Z,-5.30
2018-02-07T18:52:30.029Z,-5.40
2018-02-07T18:54:56.493Z,-5.40
2018-02-07T18:57:23.627Z,-5.70
2018-02-07T18:59:52.117Z,-5.40
2018-02-07T19:02:18.767Z,-5.30
2018-02-07T19:04:45.460Z,-5.40
2018-02-07T19:07:12.962Z,-4.80
2018-02-07T19:09:39.590Z,-4.60
2018-02-07T19:12:06.017Z,-4.50
2018-02-07T19:14:32.686Z,-4.50
2018-02-07T19:16:59.867Z,-4.50
2018-02-07T19:19:27.043Z,-4.30
2018-02-07T19:21:54.894Z,-4.30
2018-02-07T19:24:22.669Z,-4.30
2018-02-07T19:26:50.643Z,-4.30
2018-02-07T19:29:17.920Z,-4.50
2018-02-07T19:31:44.819Z,-4.80
2018-02-07T19:34:11.728Z,-5.10
2018-02-07T19:36:38.457Z,-5.10
2018-02-07T19:39:05.860Z,-5.30
2018-02-07T19:41:33.546Z,-5.10
2018-02-07T19:44:00.397Z,-2.20
2018-02-07T19:46:27.638Z,-4.60
2018-02-07T19:49:00.678Z,-4.50
2018-02-07T19:51:31.763Z,-4.30
2018-02-07T19:54:01.511Z,-4.40
2018-02-07T19:56:28.728Z,-4.20
2018-02-07T19:58:55.893Z,-4.20
2018-02-07T20:01:23.620Z,-4.30
2018-02-07T20:06:19.331Z,-4.00
2018-02-07T20:08:45.833Z,-4.10
2018-02-07T20:11:12.543Z,-4.40
2018-02-07T20:13:39.795Z,-4.30
2018-02-07T20:16:08.061Z,-4.10
2018-02-07T20:18:35.105Z,-4.20
2018-02-07T20:21:02.343Z,-4.20
2018-02-07T20:23:29.468Z,-4.30
2018-02-07T20:25:57.725Z,-4.30
2018-02-07T20:28:24.569Z,-4.30
2018-02-07T20:30:52.173Z,-4.60
2018-02-07T20:33:19.343Z,-4.80
2018-02-07T20:35:47.409Z,-5.10
2018-02-07T20:38:14.567Z,-5.30
2018-02-07T20:40:42.477Z,-5.60
2018-02-07T20:43:09.567Z,-5.50
2018-02-07T20:45:36.630Z,-5.60
2018-02-07T20:50:55.678Z,-5.80
2018-02-07T20:53:22.314Z,-5.80
2018-02-07T20:55:48.898Z,-5.80
2018-02-07T20:58:16.638Z,-5.70
2018-02-07T21:00:43.480Z,-5.80
2018-02-07T21:03:10.392Z,-5.60
2018-02-07T21:05:37.302Z,-5.60
2018-02-07T21:08:04.538Z,-5.60
2018-02-07T21:10:31.994Z,-5.80
2018-02-07T21:12:59.818Z,-5.70
2018-02-07T21:15:27.160Z,-5.90
2018-02-07T21:17:54.125Z,-6.50
2018-02-07T21:20:21.440Z,-5.80
2018-02-07T21:22:48.935Z,-5.80
2018-02-07T21:25:15.859Z,-5.80
2018-02-07T21:27:43.743Z,-5.90
2018-02-07T21:30:11.826Z,-5.90
2018-02-07T21:32:38.874Z,-6.10
2018-02-07T21:35:06.151Z,-6.20
2018-02-07T21:37:32.754Z,-6.30
2018-02-07T21:40:00.140Z,-6.20
2018-02-07T21:42:27.133Z,-6.30
2018-02-07T21:44:53.947Z,-6.40
2018-02-07T21:47:20.672Z,-6.30
2018-02-07T21:49:48.222Z,-6.40
2018-02-07T21:52:17.089Z,-6.30
2018-02-07T21:54:43.861Z,-6.20
2018-02-07T21:57:11.033Z,-6.50
2018-02-07T21:59:38.939Z,-6.50
2018-02-07T22:02:05.719Z,-6.40
2018-02-07T22:04:33.021Z,-6.20
2018-02-07T22:06:59.979Z,-6.10
2018-02-07T22:09:27.349Z,-6.30
2018-02-07T22:11:54.109Z,-6.30
2018-02-07T22:14:20.789Z,-6.60
2018-02-07T22:16:47.545Z,-6.30
2018-02-07T22:19:14.651Z,-6.30
2018-02-07T22:21:41.308Z,-6.20
2018-02-07T22:24:07.981Z,-6.20
2018-02-07T22:26:35.692Z,-6.10
2018-02-07T22:29:02.627Z,-5.90
2018-02-07T22:37:12.465Z,-5.70
2018-02-07T22:39:39.271Z,-5.60
2018-02-07T22:42:11.554Z,-5.80
2018-02-07T22:44:38.326Z,-5.80
2018-02-07T22:47:06.892Z,-5.80
2018-02-07T23:00:52.983Z,-6.20
2018-02-07T23:03:20.287Z,-6.20
2018-02-07T23:05:47.521Z,-6.10
2018-02-07T23:08:15.261Z,-5.90
2018-02-07T23:10:42.789Z,-5.90
2018-02-07T23:13:09.873Z,-5.90
2018-02-07T23:15:43.551Z,-6.20
2018-02-07T23:18:17.236Z,-6.30
2018-02-07T23:20:44.728Z,-6.40
2018-02-07T23:23:11.676Z,-6.50
2018-02-07T23:25:39.133Z,-6.60
2018-02-07T23:28:06.537Z,-6.70
2018-02-07T23:30:34.440Z,-6.60
2018-02-07T23:33:01.765Z,-6.60
2018-02-07T23:35:29.867Z,-6.60
2018-02-07T23:37:56.995Z,-6.70
2018-02-07T23:40:23.645Z,-6.60
2018-02-07T23:42:50.582Z,-6.70
2018-02-07T23:45:17.980Z,-6.80
2018-02-07T23:47:45.068Z,-6.90
2018-02-07T23:50:11.611Z,-6.90
2018-02-07T23:52:39.883Z,-7.40
2018-02-07T23:55:08.133Z,-6.90
2018-02-07T23:57:35.157Z,-6.50
